sensor_id;sensor_type;location;lat;lon;timestamp;pressure;altitude;pressure_sealevel;temperature;humidity
18533;BME280;9396;51.510;11.934;2023-06-26T00:01:03;100461.03;;;21.04;97.75
18533;BME280;9396;51.510;11.934;2023-06-26T00:03:30;100464.97;;;21.01;97.63
18533;BME280;9396;51.510;11.934;2023-06-26T00:05:58;100461.66;;;20.99;97.48
18533;BME280;9396;51.510;11.934;2023-06-26T00:08:27;100467.28;;;20.98;97.58
18533;BME280;9396;51.510;11.934;2023-06-26T00:10:53;100464.78;;;20.96;97.50
18533;BME280;9396;51.510;11.934;2023-06-26T00:13:20;100465.19;;;20.93;96.89
18533;BME280;9396;51.510;11.934;2023-06-26T00:15:47;100462.72;;;20.92;97.24
18533;BME280;9396;51.510;11.934;2023-06-26T00:18:13;100468.81;;;20.87;97.38
18533;BME280;9396;51.510;11.934;2023-06-26T00:20:40;100464.88;;;20.83;97.57
18533;BME280;9396;51.510;11.934;2023-06-26T00:23:07;100461.56;;;20.81;97.96
18533;BME280;9396;51.510;11.934;2023-06-26T00:25:35;100458.84;;;20.81;98.10
18533;BME280;9396;51.510;11.934;2023-06-26T00:28:01;100461.16;;;20.78;98.23
18533;BME280;9396;51.510;11.934;2023-06-26T00:30:28;100455.34;;;20.74;97.66
18533;BME280;9396;51.510;11.934;2023-06-26T00:32:54;100458.94;;;20.68;97.77
18533;BME280;9396;51.510;11.934;2023-06-26T00:35:21;100454.78;;;20.66;97.53
18533;BME280;9396;51.510;11.934;2023-06-26T00:37:48;100461.44;;;20.63;97.13
18533;BME280;9396;51.510;11.934;2023-06-26T00:40:15;100408.03;;;20.27;97.34
18533;BME280;9396;51.510;11.934;2023-06-26T00:42:43;100459.41;;;20.59;97.29
18533;BME280;9396;51.510;11.934;2023-06-26T00:45:10;100453.84;;;20.54;98.01
18533;BME280;9396;51.510;11.934;2023-06-26T00:47:37;100449.69;;;20.51;98.48
18533;BME280;9396;51.510;11.934;2023-06-26T00:50:05;100443.03;;;20.47;98.21
18533;BME280;9396;51.510;11.934;2023-06-26T00:52:31;100449.94;;;20.43;98.45
18533;BME280;9396;51.510;11.934;2023-06-26T00:54:58;100441.63;;;20.45;98.21
18533;BME280;9396;51.510;11.934;2023-06-26T00:57:25;100443.94;;;20.41;98.31
18533;BME280;9396;51.510;11.934;2023-06-26T00:59:53;100439.38;;;20.35;98.96
18533;BME280;9396;51.510;11.934;2023-06-26T01:02:20;100438.97;;;20.32;99.04
18533;BME280;9396;51.510;11.934;2023-06-26T01:04:47;100435.25;;;20.26;98.55
18533;BME280;9396;51.510;11.934;2023-06-26T01:07:15;100440.06;;;20.24;98.24
18533;BME280;9396;51.510;11.934;2023-06-26T01:09:44;100440.28;;;20.22;98.52
18533;BME280;9396;51.510;11.934;2023-06-26T01:12:12;100439.66;;;20.20;98.48
18533;BME280;9396;51.510;11.934;2023-06-26T01:14:39;100444.47;;;20.18;98.30
18533;BME280;9396;51.510;11.934;2023-06-26T01:17:07;100434.88;;;20.16;98.74
18533;BME280;9396;51.510;11.934;2023-06-26T01:19:37;100432.41;;;20.14;98.78
18533;BME280;9396;51.510;11.934;2023-06-26T01:22:12;100438.44;;;20.10;98.95
18533;BME280;9396;51.510;11.934;2023-06-26T01:24:47;100434.91;;;20.03;98.73
18533;BME280;9396;51.510;11.934;2023-06-26T01:27:21;100428.91;;;20.01;98.61
18533;BME280;9396;51.510;11.934;2023-06-26T01:29:49;100389.13;;;19.77;99.22
18533;BME280;9396;51.510;11.934;2023-06-26T01:32:17;100423.31;;;19.96;99.21
18533;BME280;9396;51.510;11.934;2023-06-26T01:34:45;100431.84;;;19.93;99.52
18533;BME280;9396;51.510;11.934;2023-06-26T01:37:12;100422.72;;;19.87;99.29
18533;BME280;9396;51.510;11.934;2023-06-26T01:39:38;100429.59;;;19.83;99.29
18533;BME280;9396;51.510;11.934;2023-06-26T01:42:05;100426.28;;;19.81;99.28
18533;BME280;9396;51.510;11.934;2023-06-26T01:44:37;100414.66;;;19.81;99.28
18533;BME280;9396;51.510;11.934;2023-06-26T01:47:10;100426.75;;;19.65;100.00
18533;BME280;9396;51.510;11.934;2023-06-26T01:49:46;100410.16;;;19.55;100.00
18533;BME280;9396;51.510;11.934;2023-06-26T01:52:19;100408.50;;;19.61;100.00
18533;BME280;9396;51.510;11.934;2023-06-26T01:54:56;100404.75;;;19.62;100.00
18533;BME280;9396;51.510;11.934;2023-06-26T01:57:26;100410.13;;;19.62;100.00
18533;BME280;9396;51.510;11.934;2023-06-26T01:59:55;100408.94;;;19.58;100.00
18533;BME280;9396;51.510;11.934;2023-06-26T02:02:23;100408.31;;;19.56;100.00
18533;BME280;9396;51.510;11.934;2023-06-26T02:04:50;100408.91;;;19.51;100.00
18533;BME280;9396;51.510;11.934;2023-06-26T02:07:17;100402.75;;;19.31;100.00
18533;BME280;9396;51.510;11.934;2023-06-26T02:09:43;100394.00;;;19.22;100.00
18533;BME280;9396;51.510;11.934;2023-06-26T02:12:10;100394.81;;;19.30;100.00
18533;BME280;9396;51.510;11.934;2023-06-26T02:14:37;100397.34;;;19.38;100.00
18533;BME280;9396;51.510;11.934;2023-06-26T02:17:05;100397.75;;;19.41;100.00
18533;BME280;9396;51.510;11.934;2023-06-26T02:19:34;100398.38;;;19.43;100.00
18533;BME280;9396;51.510;11.934;2023-06-26T02:22:01;100392.97;;;19.43;100.00
18533;BME280;9396;51.510;11.934;2023-06-26T02:24:27;100396.09;;;19.40;100.00
18533;BME280;9396;51.510;11.934;2023-06-26T02:26:55;100392.78;;;19.38;100.00
18533;BME280;9396;51.510;11.934;2023-06-26T02:29:22;100391.09;;;19.37;100.00
18533;BME280;9396;51.510;11.934;2023-06-26T02:31:50;100394.44;;;19.33;100.00
18533;BME280;9396;51.510;11.934;2023-06-26T02:34:35;100335.97;;;19.00;100.00
18533;BME280;9396;51.510;11.934;2023-06-26T02:37:16;100389.84;;;19.27;100.00
18533;BME280;9396;51.510;11.934;2023-06-26T02:39:58;100392.16;;;19.23;100.00
18533;BME280;9396;51.510;11.934;2023-06-26T02:42:39;100389.25;;;19.18;100.00
18533;BME280;9396;51.510;11.934;2023-06-26T02:45:22;100386.97;;;19.21;100.00
18533;BME280;9396;51.510;11.934;2023-06-26T02:48:03;100384.88;;;19.23;100.00
18533;BME280;9396;51.510;11.934;2023-06-26T03:03:57;100367.88;;;19.10;100.00
18533;BME280;9396;51.510;11.934;2023-06-26T03:06:47;100367.88;;;19.10;100.00
18533;BME280;9396;51.510;11.934;2023-06-26T03:09:28;100363.31;;;19.10;100.00
18533;BME280;9396;51.510;11.934;2023-06-26T03:12:03;100361.88;;;19.08;100.00
18533;BME280;9396;51.510;11.934;2023-06-26T03:14:45;100367.47;;;19.06;100.00
18533;BME280;9396;51.510;11.934;2023-06-26T03:17:26;100360.84;;;19.02;100.00
18533;BME280;9396;51.510;11.934;2023-06-26T03:23:23;100361.25;;;18.99;100.00
18533;BME280;9396;51.510;11.934;2023-06-26T03:26:11;100361.25;;;18.99;100.00
18533;BME280;9396;51.510;11.934;2023-06-26T03:28:53;100355.47;;;19.02;100.00
18533;BME280;9396;51.510;11.934;2023-06-26T03:31:37;100358.97;;;19.03;100.00
18533;BME280;9396;51.510;11.934;2023-06-26T03:34:19;100352.97;;;19.01;100.00
18533;BME280;9396;51.510;11.934;2023-06-26T03:37:00;100355.69;;;19.01;100.00
18533;BME280;9396;51.510;11.934;2023-06-26T03:42:55;100339.50;;;19.01;100.00
18533;BME280;9396;51.510;11.934;2023-06-26T03:45:36;100346.75;;;19.00;100.00
18533;BME280;9396;51.510;11.934;2023-06-26T03:48:17;100343.00;;;19.01;100.00
18533;BME280;9396;51.510;11.934;2023-06-26T03:51:04;100341.75;;;19.04;100.00
18533;BME280;9396;51.510;11.934;2023-06-26T03:53:45;100341.16;;;19.02;100.00
18533;BME280;9396;51.510;11.934;2023-06-26T03:56:25;100337.22;;;19.04;100.00
18533;BME280;9396;51.510;11.934;2023-06-26T03:59:11;100337.63;;;19.08;100.00
18533;BME280;9396;51.510;11.934;2023-06-26T04:01:41;100332.81;;;19.10;100.00
18533;BME280;9396;51.510;11.934;2023-06-26T04:04:23;100332.41;;;19.13;100.00
18533;BME280;9396;51.510;11.934;2023-06-26T04:07:24;100343.00;;;19.14;100.00
18533;BME280;9396;51.510;11.934;2023-06-26T04:10:08;100335.53;;;19.16;100.00
18533;BME280;9396;51.510;11.934;2023-06-26T04:12:44;100342.16;;;19.20;100.00
18533;BME280;9396;51.510;11.934;2023-06-26T04:15:29;100337.19;;;19.31;100.00
18533;BME280;9396;51.510;11.934;2023-06-26T04:18:11;100334.47;;;19.31;100.00
18533;BME280;9396;51.510;11.934;2023-06-26T04:21:05;100331.34;;;19.34;100.00
18533;BME280;9396;51.510;11.934;2023-06-26T04:23:46;100329.28;;;19.36;100.00
18533;BME280;9396;51.510;11.934;2023-06-26T04:26:22;100334.84;;;19.41;100.00
18533;BME280;9396;51.510;11.934;2023-06-26T04:29:05;100335.88;;;19.46;100.00
18533;BME280;9396;51.510;11.934;2023-06-26T04:38:05;100337.88;;;19.64;100.00
18533;BME280;9396;51.510;11.934;2023-06-26T04:40:46;100329.78;;;19.64;100.00
18533;BME280;9396;51.510;11.934;2023-06-26T04:43:14;100328.75;;;19.65;100.00
18533;BME280;9396;51.510;11.934;2023-06-26T04:45:56;100322.88;;;19.74;100.00
18533;BME280;9396;51.510;11.934;2023-06-26T04:48:25;100323.28;;;19.78;100.00
18533;BME280;9396;51.510;11.934;2023-06-26T04:51:09;100318.00;;;19.96;100.00
18533;BME280;9396;51.510;11.934;2023-06-26T04:53:55;100308.03;;;19.96;100.00
18533;BME280;9396;51.510;11.934;2023-06-26T04:56:36;100309.22;;;20.07;100.00
18533;BME280;9396;51.510;11.934;2023-06-26T04:59:17;100310.19;;;20.19;100.00
18533;BME280;9396;51.510;11.934;2023-06-26T05:01:58;100313.66;;;20.33;100.00
18533;BME280;9396;51.510;11.934;2023-06-26T05:04:40;100311.06;;;20.44;100.00
18533;BME280;9396;51.510;11.934;2023-06-26T05:07:22;100308.53;;;20.49;100.00
18533;BME280;9396;51.510;11.934;2023-06-26T05:10:19;100300.00;;;20.52;100.00
18533;BME280;9396;51.510;11.934;2023-06-26T05:12:52;100306.19;;;20.53;100.00
18533;BME280;9396;51.510;11.934;2023-06-26T05:15:35;100297.47;;;20.51;100.00
18533;BME280;9396;51.510;11.934;2023-06-26T05:18:08;100301.19;;;20.56;100.00
18533;BME280;9396;51.510;11.934;2023-06-26T05:20:58;100296.72;;;20.68;99.72
18533;BME280;9396;51.510;11.934;2023-06-26T05:23:44;100298.66;;;20.86;99.41
18533;BME280;9396;51.510;11.934;2023-06-26T05:26:47;100299.44;;;20.86;97.97
18533;BME280;9396;51.510;11.934;2023-06-26T05:29:29;100294.09;;;21.04;98.00
18533;BME280;9396;51.510;11.934;2023-06-26T05:32:34;100292.38;;;21.28;98.08
18533;BME280;9396;51.510;11.934;2023-06-26T05:35:16;100288.31;;;21.37;96.75
18533;BME280;9396;51.510;11.934;2023-06-26T05:37:59;100296.34;;;21.44;97.31
18533;BME280;9396;51.510;11.934;2023-06-26T05:40:39;100288.09;;;21.57;97.58
18533;BME280;9396;51.510;11.934;2023-06-26T05:43:28;100290.19;;;21.55;96.60
18533;BME280;9396;51.510;11.934;2023-06-26T05:46:12;100296.25;;;21.68;96.85
18533;BME280;9396;51.510;11.934;2023-06-26T05:48:55;100289.88;;;21.81;94.99
18533;BME280;9396;51.510;11.934;2023-06-26T05:51:44;100286.44;;;22.03;94.40
18533;BME280;9396;51.510;11.934;2023-06-26T05:54:26;100286.81;;;22.07;94.68
18533;BME280;9396;51.510;11.934;2023-06-26T05:57:01;100282.94;;;22.26;93.97
18533;BME280;9396;51.510;11.934;2023-06-26T06:25:09;100264.91;;;24.48;83.62
18533;BME280;9396;51.510;11.934;2023-06-26T06:27:52;100264.03;;;24.76;83.85
18533;BME280;9396;51.510;11.934;2023-06-26T06:30:33;100265.69;;;24.98;85.11
18533;BME280;9396;51.510;11.934;2023-06-26T06:33:06;100263.06;;;25.42;83.08
18533;BME280;9396;51.510;11.934;2023-06-26T06:35:48;100269.88;;;25.92;80.75
18533;BME280;9396;51.510;11.934;2023-06-26T06:38:24;100274.13;;;26.05;79.02
18533;BME280;9396;51.510;11.934;2023-06-26T06:57:25;100244.13;;;29.07;70.54
18533;BME280;9396;51.510;11.934;2023-06-26T07:00:08;100236.59;;;29.53;70.50
18533;BME280;9396;51.510;11.934;2023-06-26T07:02:56;100238.78;;;30.05;69.03
18533;BME280;9396;51.510;11.934;2023-06-26T07:05:23;100232.06;;;30.83;66.12
18533;BME280;9396;51.510;11.934;2023-06-26T07:08:06;100229.91;;;30.80;65.91
18533;BME280;9396;51.510;11.934;2023-06-26T07:10:47;100224.66;;;31.73;64.16
18533;BME280;9396;51.510;11.934;2023-06-26T07:16:58;100209.13;;;32.33;63.32
18533;BME280;9396;51.510;11.934;2023-06-26T07:19:42;100215.22;;;32.16;62.40
18533;BME280;9396;51.510;11.934;2023-06-26T07:22:24;100205.63;;;32.46;63.28
18533;BME280;9396;51.510;11.934;2023-06-26T07:25:07;100211.84;;;32.19;62.09
18533;BME280;9396;51.510;11.934;2023-06-26T07:27:59;100217.31;;;32.70;61.12
18533;BME280;9396;51.510;11.934;2023-06-26T07:30:41;100214.00;;;33.27;61.31
18533;BME280;9396;51.510;11.934;2023-06-26T07:36:41;100211.88;;;32.33;62.64
18533;BME280;9396;51.510;11.934;2023-06-26T07:39:24;100216.06;;;31.98;63.59
18533;BME280;9396;51.510;11.934;2023-06-26T07:42:06;100208.56;;;32.36;63.72
18533;BME280;9396;51.510;11.934;2023-06-26T07:44:48;100204.38;;;32.84;61.89
18533;BME280;9396;51.510;11.934;2023-06-26T07:47:19;100198.59;;;32.99;62.42
18533;BME280;9396;51.510;11.934;2023-06-26T07:50:00;100201.34;;;33.13;60.93
18533;BME280;9396;51.510;11.934;2023-06-26T07:56:16;100200.66;;;33.07;61.36
18533;BME280;9396;51.510;11.934;2023-06-26T07:58:57;100203.34;;;32.80;61.38
18533;BME280;9396;51.510;11.934;2023-06-26T08:01:38;100202.53;;;32.66;62.23
18533;BME280;9396;51.510;11.934;2023-06-26T08:04:20;100193.59;;;33.01;61.29
18533;BME280;9396;51.510;11.934;2023-06-26T08:07:04;100192.25;;;32.99;62.01
18533;BME280;9396;51.510;11.934;2023-06-26T08:09:44;100195.88;;;32.67;62.62
18533;BME280;9396;51.510;11.934;2023-06-26T08:15:36;100188.63;;;32.25;61.13
18533;BME280;9396;51.510;11.934;2023-06-26T08:18:18;100186.44;;;32.09;62.28
18533;BME280;9396;51.510;11.934;2023-06-26T08:20:59;100183.03;;;32.30;65.25
18533;BME280;9396;51.510;11.934;2023-06-26T08:23:42;100181.59;;;32.01;62.97
18533;BME280;9396;51.510;11.934;2023-06-26T08:26:22;100184.56;;;32.04;62.64
18533;BME280;9396;51.510;11.934;2023-06-26T08:29:05;100183.03;;;32.30;61.89
18533;BME280;9396;51.510;11.934;2023-06-26T08:31:49;100174.66;;;32.22;64.36
18533;BME280;9396;51.510;11.934;2023-06-26T08:34:30;100181.09;;;32.31;62.85
18533;BME280;9396;51.510;11.934;2023-06-26T08:37:10;100184.72;;;32.13;63.17
18533;BME280;9396;51.510;11.934;2023-06-26T08:39:55;100172.53;;;32.00;63.37
18533;BME280;9396;51.510;11.934;2023-06-26T08:42:24;100172.13;;;32.07;63.17
18533;BME280;9396;51.510;11.934;2023-06-26T08:45:06;100165.78;;;32.25;63.86
18533;BME280;9396;51.510;11.934;2023-06-26T08:48:07;100169.81;;;32.14;63.09
18533;BME280;9396;51.510;11.934;2023-06-26T08:50:49;100177.34;;;32.08;61.78
18533;BME280;9396;51.510;11.934;2023-06-26T08:53:33;100171.75;;;32.13;62.22
18533;BME280;9396;51.510;11.934;2023-06-26T08:56:17;100167.66;;;32.11;61.55
18533;BME280;9396;51.510;11.934;2023-06-26T08:58:58;100158.06;;;32.08;60.12
18533;BME280;9396;51.510;11.934;2023-06-26T09:01:41;100150.28;;;31.97;61.01
18533;BME280;9396;51.510;11.934;2023-06-26T09:07:39;100153.47;;;32.36;61.78
18533;BME280;9396;51.510;11.934;2023-06-26T09:10:25;100154.47;;;32.40;60.79
18533;BME280;9396;51.510;11.934;2023-06-26T09:13:07;100164.31;;;32.46;61.46
18533;BME280;9396;51.510;11.934;2023-06-26T09:15:57;100152.09;;;32.66;59.45
18533;BME280;9396;51.510;11.934;2023-06-26T09:18:40;100143.50;;;32.53;58.21
18533;BME280;9396;51.510;11.934;2023-06-26T09:21:23;100153.63;;;32.72;57.93
18533;BME280;9396;51.510;11.934;2023-06-26T09:24:23;100149.94;;;32.76;56.62
18533;BME280;9396;51.510;11.934;2023-06-26T09:27:04;100152.31;;;32.69;56.89
18533;BME280;9396;51.510;11.934;2023-06-26T09:29:42;100144.44;;;32.76;60.04
18533;BME280;9396;51.510;11.934;2023-06-26T09:32:34;100149.84;;;32.81;56.61
18533;BME280;9396;51.510;11.934;2023-06-26T09:35:19;100153.75;;;32.80;56.82
18533;BME280;9396;51.510;11.934;2023-06-26T09:38:00;100138.09;;;32.76;57.00
18533;BME280;9396;51.510;11.934;2023-06-26T09:44:05;100144.03;;;32.56;57.55
18533;BME280;9396;51.510;11.934;2023-06-26T09:46:48;100143.31;;;32.50;56.93
18533;BME280;9396;51.510;11.934;2023-06-26T09:49:32;100141.00;;;32.38;59.03
18533;BME280;9396;51.510;11.934;2023-06-26T09:52:14;100126.28;;;32.16;58.59
18533;BME280;9396;51.510;11.934;2023-06-26T10:13:15;100113.31;;;31.84;57.10
18533;BME280;9396;51.510;11.934;2023-06-26T10:15:45;100106.81;;;31.94;57.65
18533;BME280;9396;51.510;11.934;2023-06-26T10:18:13;100103.81;;;31.95;57.26
18533;BME280;9396;51.510;11.934;2023-06-26T10:20:44;100103.59;;;31.92;55.96
18533;BME280;9396;51.510;11.934;2023-06-26T10:23:13;100098.66;;;31.89;54.00
18533;BME280;9396;51.510;11.934;2023-06-26T10:25:42;100090.69;;;31.87;56.03
18533;BME280;9396;51.510;11.934;2023-06-26T10:28:13;100095.84;;;31.75;54.38
18533;BME280;9396;51.510;11.934;2023-06-26T10:30:42;100093.84;;;31.62;54.77
18533;BME280;9396;51.510;11.934;2023-06-26T10:33:11;100095.78;;;31.62;55.62
18533;BME280;9396;51.510;11.934;2023-06-26T10:35:42;100096.47;;;31.53;55.05
18533;BME280;9396;51.510;11.934;2023-06-26T10:38:09;100089.41;;;31.47;54.67
18533;BME280;9396;51.510;11.934;2023-06-26T10:40:43;100083.16;;;31.42;54.86
18533;BME280;9396;51.510;11.934;2023-06-26T10:43:12;100087.84;;;31.41;55.44
18533;BME280;9396;51.510;11.934;2023-06-26T10:45:45;100085.47;;;31.35;55.96
18533;BME280;9396;51.510;11.934;2023-06-26T10:48:13;100067.16;;;31.25;54.57
18533;BME280;9396;51.510;11.934;2023-06-26T10:50:40;100080.69;;;31.22;55.40
18533;BME280;9396;51.510;11.934;2023-06-26T10:53:10;100077.50;;;31.15;54.41
18533;BME280;9396;51.510;11.934;2023-06-26T10:55:42;100066.84;;;31.08;55.01
18533;BME280;9396;51.510;11.934;2023-06-26T10:58:30;100071.19;;;31.14;54.92
18533;BME280;9396;51.510;11.934;2023-06-26T11:01:21;100076.16;;;31.12;55.52
18533;BME280;9396;51.510;11.934;2023-06-26T11:03:59;100075.41;;;31.07;55.57
18533;BME280;9396;51.510;11.934;2023-06-26T11:06:27;100068.63;;;30.81;55.66
18533;BME280;9396;51.510;11.934;2023-06-26T11:09:01;100062.34;;;30.75;56.29
18533;BME280;9396;51.510;11.934;2023-06-26T11:11:57;100062.13;;;30.95;56.66
18533;BME280;9396;51.510;11.934;2023-06-26T11:14:33;100067.38;;;30.92;56.80
18533;BME280;9396;51.510;11.934;2023-06-26T11:17:04;100058.38;;;30.86;55.61
18533;BME280;9396;51.510;11.934;2023-06-26T11:19:31;100049.66;;;30.79;56.23
18533;BME280;9396;51.510;11.934;2023-06-26T11:21:58;100048.59;;;30.75;54.27
18533;BME280;9396;51.510;11.934;2023-06-26T11:24:26;100040.38;;;30.75;55.15
18533;BME280;9396;51.510;11.934;2023-06-26T11:26:54;100056.84;;;30.75;54.87
18533;BME280;9396;51.510;11.934;2023-06-26T11:29:25;100055.34;;;30.88;55.63
18533;BME280;9396;51.510;11.934;2023-06-26T11:31:58;100047.03;;;30.93;54.70
18533;BME280;9396;51.510;11.934;2023-06-26T11:34:29;100056.38;;;30.92;56.01
18533;BME280;9396;51.510;11.934;2023-06-26T11:36:57;100034.19;;;30.88;53.80
18533;BME280;9396;51.510;11.934;2023-06-26T11:39:26;100047.09;;;30.88;55.63
18533;BME280;9396;51.510;11.934;2023-06-26T11:41:53;100044.72;;;30.81;54.03
18533;BME280;9396;51.510;11.934;2023-06-26T11:44:21;100040.31;;;30.80;55.29
18533;BME280;9396;51.510;11.934;2023-06-26T11:46:51;100039.75;;;30.78;54.63
18533;BME280;9396;51.510;11.934;2023-06-26T11:49:21;100037.56;;;30.80;55.18
18533;BME280;9396;51.510;11.934;2023-06-26T11:51:49;100039.72;;;30.83;53.56
18533;BME280;9396;51.510;11.934;2023-06-26T11:54:23;100036.19;;;30.83;52.88
18533;BME280;9396;51.510;11.934;2023-06-26T11:56:54;100036.97;;;30.83;54.61
18533;BME280;9396;51.510;11.934;2023-06-26T11:59:23;99987.41;;;30.51;53.19
18533;BME280;9396;51.510;11.934;2023-06-26T12:01:50;100037.31;;;30.77;54.13
18533;BME280;9396;51.510;11.934;2023-06-26T12:04:18;100040.03;;;30.82;55.67
18533;BME280;9396;51.510;11.934;2023-06-26T12:06:47;99957.44;;;30.31;54.99
18533;BME280;9396;51.510;11.934;2023-06-26T12:09:17;100026.78;;;30.65;54.74
18533;BME280;9396;51.510;11.934;2023-06-26T12:11:46;100022.06;;;30.66;55.79
18533;BME280;9396;51.510;11.934;2023-06-26T12:14:14;100016.81;;;30.69;55.61
18533;BME280;9396;51.510;11.934;2023-06-26T12:16:42;100018.91;;;30.77;56.06
18533;BME280;9396;51.510;11.934;2023-06-26T12:19:09;100018.25;;;30.85;56.95
18533;BME280;9396;51.510;11.934;2023-06-26T12:21:47;100003.28;;;30.96;55.29
18533;BME280;9396;51.510;11.934;2023-06-26T12:24:17;100015.22;;;31.05;56.36
18533;BME280;9396;51.510;11.934;2023-06-26T12:26:46;100016.59;;;31.08;56.16
18533;BME280;9396;51.510;11.934;2023-06-26T12:29:14;100003.94;;;31.07;55.91
18533;BME280;9396;51.510;11.934;2023-06-26T12:31:44;100004.44;;;31.09;56.24
18533;BME280;9396;51.510;11.934;2023-06-26T12:34:13;100003.19;;;31.01;56.27
18533;BME280;9396;51.510;11.934;2023-06-26T12:36:43;99997.56;;;30.93;56.39
18533;BME280;9396;51.510;11.934;2023-06-26T12:39:10;100004.97;;;30.92;56.42
18533;BME280;9396;51.510;11.934;2023-06-26T12:41:49;100001.25;;;30.83;55.40
18533;BME280;9396;51.510;11.934;2023-06-26T12:44:24;99992.25;;;30.78;55.93
18533;BME280;9396;51.510;11.934;2023-06-26T12:46:54;99991.44;;;30.77;56.52
18533;BME280;9396;51.510;11.934;2023-06-26T12:49:29;99987.03;;;30.76;55.36
18533;BME280;9396;51.510;11.934;2023-06-26T12:51:56;99985.41;;;30.75;56.32
18533;BME280;9396;51.510;11.934;2023-06-26T12:54:23;99990.47;;;30.68;57.08
18533;BME280;9396;51.510;11.934;2023-06-26T12:56:51;99990.22;;;30.65;56.14
18533;BME280;9396;51.510;11.934;2023-06-26T12:59:18;99985.34;;;30.62;54.66
18533;BME280;9396;51.510;11.934;2023-06-26T13:01:44;99992.22;;;30.59;57.60
18533;BME280;9396;51.510;11.934;2023-06-26T13:04:11;99995.56;;;30.56;55.66
18533;BME280;9396;51.510;11.934;2023-06-26T13:06:38;99986.06;;;30.48;56.73
18533;BME280;9396;51.510;11.934;2023-06-26T13:09:04;99985.22;;;30.48;57.23
18533;BME280;9396;51.510;11.934;2023-06-26T13:11:31;99986.69;;;30.40;57.47
18533;BME280;9396;51.510;11.934;2023-06-26T13:14:00;99985.06;;;30.39;56.20
18533;BME280;9396;51.510;11.934;2023-06-26T13:16:26;99997.97;;;30.39;57.55
18533;BME280;9396;51.510;11.934;2023-06-26T13:18:53;99990.63;;;30.34;56.81
18533;BME280;9396;51.510;11.934;2023-06-26T13:21:21;99998.56;;;30.36;56.64
18533;BME280;9396;51.510;11.934;2023-06-26T13:23:47;99998.09;;;30.29;56.20
18533;BME280;9396;51.510;11.934;2023-06-26T13:26:14;100027.28;;;30.20;57.34
18533;BME280;9396;51.510;11.934;2023-06-26T13:28:41;100036.94;;;29.89;62.29
18533;BME280;9396;51.510;11.934;2023-06-26T13:31:09;100055.88;;;29.13;68.46
18533;BME280;9396;51.510;11.934;2023-06-26T13:33:35;100065.75;;;28.55;71.74
18533;BME280;9396;51.510;11.934;2023-06-26T13:36:02;100068.59;;;28.00;74.88
18533;BME280;9396;51.510;11.934;2023-06-26T13:38:32;100088.25;;;27.57;78.81
18533;BME280;9396;51.510;11.934;2023-06-26T13:40:59;100110.59;;;27.28;77.32
18533;BME280;9396;51.510;11.934;2023-06-26T13:43:27;100123.94;;;27.10;77.29
18533;BME280;9396;51.510;11.934;2023-06-26T13:45:55;100138.63;;;26.99;76.87
18533;BME280;9396;51.510;11.934;2023-06-26T13:48:23;100120.25;;;26.79;75.44
18533;BME280;9396;51.510;11.934;2023-06-26T13:50:51;100095.03;;;26.62;75.61
18533;BME280;9396;51.510;11.934;2023-06-26T13:53:18;100123.81;;;26.85;75.31
18533;BME280;9396;51.510;11.934;2023-06-26T13:55:44;100124.69;;;26.90;74.70
18533;BME280;9396;51.510;11.934;2023-06-26T13:58:11;100133.66;;;26.81;75.15
18533;BME280;9396;51.510;11.934;2023-06-26T14:00:39;100127.97;;;26.97;76.19
18533;BME280;9396;51.510;11.934;2023-06-26T14:03:06;100119.19;;;26.80;75.44
18533;BME280;9396;51.510;11.934;2023-06-26T14:05:35;100108.72;;;26.67;76.59
18533;BME280;9396;51.510;11.934;2023-06-26T14:08:03;100119.03;;;26.55;76.81
18533;BME280;9396;51.510;11.934;2023-06-26T14:10:30;100122.16;;;26.32;78.66
18533;BME280;9396;51.510;11.934;2023-06-26T14:12:58;100117.19;;;26.24;78.68
18533;BME280;9396;51.510;11.934;2023-06-26T14:15:25;100121.00;;;26.23;79.97
18533;BME280;9396;51.510;11.934;2023-06-26T14:17:51;100123.19;;;26.26;80.72
18533;BME280;9396;51.510;11.934;2023-06-26T14:20:18;100123.31;;;26.41;80.63
18533;BME280;9396;51.510;11.934;2023-06-26T14:22:49;100132.56;;;26.40;79.31
18533;BME280;9396;51.510;11.934;2023-06-26T14:25:16;100130.91;;;26.34;79.25
18533;BME280;9396;51.510;11.934;2023-06-26T14:27:43;100134.72;;;26.33;80.44
18533;BME280;9396;51.510;11.934;2023-06-26T14:30:10;100135.28;;;26.35;80.79
18533;BME280;9396;51.510;11.934;2023-06-26T14:32:37;100137.03;;;26.09;80.74
18533;BME280;9396;51.510;11.934;2023-06-26T14:35:04;100127.47;;;26.12;81.40
18533;BME280;9396;51.510;11.934;2023-06-26T14:37:31;100141.50;;;26.25;81.82
18533;BME280;9396;51.510;11.934;2023-06-26T14:39:59;100145.59;;;25.96;81.12
18533;BME280;9396;51.510;11.934;2023-06-26T14:42:26;100128.97;;;25.98;82.25
18533;BME280;9396;51.510;11.934;2023-06-26T14:44:52;100125.19;;;25.99;81.24
18533;BME280;9396;51.510;11.934;2023-06-26T14:47:19;100127.91;;;25.99;80.98
18533;BME280;9396;51.510;11.934;2023-06-26T14:49:45;100129.78;;;25.93;82.05
18533;BME280;9396;51.510;11.934;2023-06-26T14:52:12;100134.09;;;25.89;82.75
18533;BME280;9396;51.510;11.934;2023-06-26T14:54:39;100128.31;;;25.81;81.95
18533;BME280;9396;51.510;11.934;2023-06-26T14:57:07;100130.22;;;25.54;81.91
18533;BME280;9396;51.510;11.934;2023-06-26T14:59:34;100138.34;;;25.49;82.56
18533;BME280;9396;51.510;11.934;2023-06-26T15:02:00;100088.66;;;25.15;83.81
18533;BME280;9396;51.510;11.934;2023-06-26T15:04:27;100143.75;;;25.44;83.55
18533;BME280;9396;51.510;11.934;2023-06-26T15:06:56;100134.50;;;25.45;83.70
18533;BME280;9396;51.510;11.934;2023-06-26T15:09:23;100136.38;;;25.44;83.62
18533;BME280;9396;51.510;11.934;2023-06-26T15:11:50;100125.78;;;25.48;83.51